Time;durP1;ratioP1;P1;durP2;ratioP2;P2;SDS_P1;SDS_P2;PMS_P1;PMS_P2;Temp;Humidity;BMP_temperature;BMP_pressure;BME280_temperature;BME280_humidity;BME280_pressure;Samples;Min_cycle;Max_cycle;Signal;HPM_P1;HPM_P2
2023/04/17 00:00:57;;;;;;;4.60;2.55;;;19.40;67.40;;;;;;5027186;28;20049;-67
2023/04/17 00:03:26;;;;;;;6.47;2.70;;;19.40;67.50;;;;;;5027357;28;20041;-67
2023/04/17 00:05:57;;;;;;;6.03;2.72;;;19.50;67.50;;;;;;5023999;28;20140;-67
2023/04/17 00:08:27;;;;;;;5.15;2.38;;;19.40;67.50;;;;;;5013348;28;20518;-67
2023/04/17 00:14:39;;;;;;;6.75;2.67;;;19.40;67.50;;;;;;5029482;28;20036;-68
2023/04/17 00:17:12;;;;;;;4.82;2.15;;;19.40;67.50;;;;;;5024989;28;20128;-67
2023/04/17 00:19:41;;;;;;;3.42;1.95;;;19.40;67.50;;;;;;5024340;28;20061;-68
2023/04/17 00:22:09;;;;;;;4.93;2.70;;;19.40;67.50;;;;;;5026493;28;20424;-67
2023/04/17 00:24:44;;;;;;;4.22;2.17;;;19.40;67.40;;;;;;5012973;28;20054;-67
2023/04/17 00:27:14;;;;;;;4.60;2.22;;;19.40;67.50;;;;;;5019732;28;20047;-67
2023/04/17 00:29:45;;;;;;;4.75;2.47;;;19.40;67.40;;;;;;5025851;28;20137;-67
2023/04/17 00:32:15;;;;;;;4.75;2.45;;;19.40;67.40;;;;;;5032397;28;20064;-67
2023/04/17 00:34:53;;;;;;;4.60;2.47;;;19.40;67.40;;;;;;5026403;28;20051;-67
2023/04/17 00:37:23;;;;;;;5.50;2.63;;;19.50;67.30;;;;;;5026826;28;20049;-68
2023/04/17 00:39:54;;;;;;;6.07;2.35;;;19.50;67.20;;;;;;5025184;28;20080;-67
2023/04/17 00:42:24;;;;;;;4.53;2.22;;;19.60;67.20;;;;;;5020914;28;20045;-67
2023/04/17 00:44:56;;;;;;;5.30;2.35;;;19.70;67.10;;;;;;5026614;28;20052;-67
2023/04/17 00:47:26;;;;;;;4.28;1.85;;;19.70;67.00;;;;;;5026886;28;20045;-67
2023/04/17 00:49:55;;;;;;;4.78;2.05;;;19.80;66.90;;;;;;5027852;28;20061;-67
2023/04/17 00:52:30;;;;;;;4.18;2.05;;;19.80;66.80;;;;;;5026529;28;20042;-67
2023/04/17 00:55:00;;;;;;;4.18;2.00;;;19.90;66.70;;;;;;5027201;28;20132;-67
2023/04/17 00:57:29;;;;;;;3.75;2.10;;;19.90;66.60;;;;;;5021657;28;20145;-67
2023/04/17 01:00:03;;;;;;;5.13;2.05;;;20.00;66.50;;;;;;5013915;28;20402;-67
2023/04/17 01:02:33;;;;;;;4.13;2.13;;;20.00;66.40;;;;;;5028746;28;20060;-67
2023/04/17 01:05:01;;;;;;;4.38;2.03;;;20.10;66.40;;;;;;5017756;28;20072;-68
2023/04/17 01:07:31;;;;;;;4.88;2.42;;;20.10;66.30;;;;;;5031738;28;20068;-68
2023/04/17 01:10:01;;;;;;;4.35;1.92;;;20.10;66.30;;;;;;5012420;28;20047;-68
2023/04/17 01:12:32;;;;;;;5.80;2.40;;;20.10;66.20;;;;;;5029364;28;20052;-67
2023/04/17 01:15:09;;;;;;;4.80;2.22;;;20.10;66.20;;;;;;5023706;28;20394;-67
2023/04/17 01:17:40;;;;;;;4.38;2.13;;;20.10;66.20;;;;;;5019982;28;20073;-67
2023/04/17 01:20:18;;;;;;;;;;;20.10;66.30;;;;;;5028888;28;20060;-67
2023/04/17 01:22:51;;;;;;;4.80;2.10;;;20.10;66.30;;;;;;5057830;28;19932;-67
2023/04/17 01:25:25;;;;;;;3.83;1.90;;;20.10;66.30;;;;;;5019101;28;20041;-68
2023/04/17 01:27:55;;;;;;;4.78;2.28;;;20.10;66.20;;;;;;5030187;28;20049;-67
2023/04/17 01:34:07;;;;;;;4.13;2.17;;;20.00;66.20;;;;;;5705212;22;20494;-68
2023/04/17 01:36:44;;;;;;;5.05;1.90;;;20.00;66.30;;;;;;5018010;28;20061;-67
2023/04/17 01:42:54;;;;;;;4.53;2.10;;;19.90;66.30;;;;;;5159635;22;20139;-67
2023/04/17 01:45:25;;;;;;;3.15;1.95;;;19.90;66.30;;;;;;4994784;28;20046;-67
2023/04/17 01:47:55;;;;;;;3.88;1.75;;;19.90;66.30;;;;;;5001254;28;20085;-67
2023/04/17 01:50:24;;;;;;;3.97;2.00;;;19.90;66.30;;;;;;5007201;28;20042;-69
2023/04/17 01:52:54;;;;;;;4.18;1.98;;;19.90;66.40;;;;;;5007655;28;20046;-68
2023/04/17 01:55:23;;;;;;;4.38;2.45;;;19.90;66.40;;;;;;5009457;28;20507;-67
2023/04/17 02:00:40;;;;;;;3.30;1.92;;;19.80;66.40;;;;;;4994644;22;20108;-68
2023/04/17 02:03:10;;;;;;;3.45;1.75;;;19.70;66.50;;;;;;4992518;28;20043;-67
2023/04/17 02:05:46;;;;;;;3.28;1.70;;;19.70;66.50;;;;;;4996769;28;20125;-68
2023/04/17 02:08:15;;;;;;;4.07;1.90;;;19.70;66.50;;;;;;4997093;28;20410;-67
2023/04/17 02:10:51;;;;;;;4.32;1.85;;;19.70;66.60;;;;;;5007502;28;20061;-68
2023/04/17 02:13:21;;;;;;;4.22;2.15;;;19.70;66.60;;;;;;5006786;28;20414;-67
2023/04/17 02:16:04;;;;;;;5.28;2.00;;;19.70;66.60;;;;;;5002571;28;20398;-67
2023/04/17 02:18:34;;;;;;;3.80;2.17;;;19.60;66.60;;;;;;5008636;28;20521;-66
2023/04/17 02:21:09;;;;;;;4.03;1.75;;;19.70;66.70;;;;;;4997491;28;20046;-67
2023/04/17 02:23:44;;;;;;;;;;;19.60;66.70;;;;;;4998691;28;20061;-67
2023/04/17 02:26:14;;;;;;;4.57;2.20;;;19.60;66.60;;;;;;4998149;28;20326;-67
2023/04/17 02:28:52;;;;;;;3.35;1.85;;;19.60;66.60;;;;;;4995310;28;20519;-67
2023/04/17 02:31:34;;;;;;;3.65;1.92;;;19.60;66.60;;;;;;4994241;23;20053;-67
2023/04/17 02:34:04;;;;;;;3.10;1.73;;;19.50;66.70;;;;;;5005936;28;20046;-66
2023/04/17 02:36:35;;;;;;;3.65;1.83;;;19.50;66.70;;;;;;5009025;28;20817;-67
2023/04/17 02:39:11;;;;;;;3.72;1.90;;;19.50;66.60;;;;;;5009444;28;20061;-67
2023/04/17 02:41:40;;;;;;;3.50;1.67;;;19.50;66.70;;;;;;4999642;28;20096;-68
2023/04/17 02:44:11;;;;;;;2.75;1.55;;;19.50;66.70;;;;;;5008187;28;20150;-67
2023/04/17 02:46:45;;;;;;;3.70;2.05;;;19.50;66.70;;;;;;5008000;28;20048;-67
2023/04/17 02:49:14;;;;;;;3.90;1.70;;;19.50;66.80;;;;;;5008571;28;20065;-66
2023/04/17 02:51:44;;;;;;;4.35;2.20;;;19.40;66.70;;;;;;4995258;28;20046;-67
2023/04/17 02:54:17;;;;;;;4.00;1.90;;;19.40;66.70;;;;;;5009022;28;20081;-67
2023/04/17 02:56:45;;;;;;;3.53;1.38;;;19.40;66.70;;;;;;5014473;28;20049;-67
2023/04/17 02:59:13;;;;;;;4.57;2.05;;;19.40;66.70;;;;;;5013824;28;20058;-67
2023/04/17 03:01:49;;;;;;;3.58;2.05;;;19.40;66.70;;;;;;4994988;28;20085;-67
2023/04/17 03:04:23;;;;;;;3.72;1.88;;;19.50;66.70;;;;;;5008767;28;20045;-67
2023/04/17 03:07:01;;;;;;;3.58;2.25;;;19.50;66.70;;;;;;4997857;28;20390;-67
2023/04/17 03:09:29;;;;;;;3.83;1.90;;;19.50;66.60;;;;;;5008010;28;20104;-67
2023/04/17 03:12:00;;;;;;;4.03;1.83;;;19.50;66.50;;;;;;5008569;28;20095;-67
2023/04/17 03:14:27;;;;;;;3.92;2.20;;;19.60;66.50;;;;;;5009114;28;20049;-67
2023/04/17 03:16:59;;;;;;;5.57;1.88;;;19.60;66.40;;;;;;5007594;28;20420;-67
2023/04/17 03:19:27;;;;;;;3.45;1.63;;;19.70;66.30;;;;;;5007626;28;20542;-67
2023/04/17 03:21:56;;;;;;;3.78;1.95;;;19.70;66.20;;;;;;5008245;28;20494;-67
2023/04/17 03:24:26;;;;;;;3.47;1.52;;;19.80;66.10;;;;;;5008848;28;20056;-67
2023/04/17 03:26:54;;;;;;;3.83;1.98;;;19.90;66.00;;;;;;5021863;28;20111;-68
2023/04/17 03:29:23;;;;;;;3.70;1.52;;;19.90;65.90;;;;;;5008190;28;20116;-67
2023/04/17 03:31:52;;;;;;;3.72;1.73;;;20.00;65.90;;;;;;5006717;28;20140;-67
2023/04/17 03:34:27;;;;;;;2.85;1.73;;;20.10;65.80;;;;;;5006608;28;20596;-67
2023/04/17 03:37:00;;;;;;;3.53;1.80;;;20.10;65.70;;;;;;5005388;28;20052;-68
2023/04/17 03:39:29;;;;;;;2.97;1.50;;;20.10;65.60;;;;;;5002252;28;20054;-67
2023/04/17 03:41:59;;;;;;;3.53;1.60;;;20.10;65.60;;;;;;5007183;28;20042;-67
2023/04/17 03:44:28;;;;;;;3.25;1.30;;;20.10;65.50;;;;;;4991423;28;20047;-67
2023/04/17 03:46:56;;;;;;;3.30;1.50;;;20.10;65.60;;;;;;5008037;28;20085;-67
2023/04/17 03:49:27;;;;;;;4.13;1.98;;;20.10;65.60;;;;;;5008417;28;20052;-67
2023/04/17 03:51:56;;;;;;;4.10;1.65;;;20.10;65.60;;;;;;5008142;28;20054;-69
2023/04/17 03:54:28;;;;;;;3.35;1.52;;;20.10;65.60;;;;;;5009005;28;20124;-67
2023/04/17 03:56:57;;;;;;;3.72;1.65;;;20.10;65.60;;;;;;5003892;28;20060;-67
2023/04/17 03:59:26;;;;;;;3.67;1.75;;;20.10;65.70;;;;;;5006832;28;20088;-68
2023/04/17 04:01:56;;;;;;;3.30;1.40;;;20.10;65.70;;;;;;5007239;28;20454;-68
2023/04/17 04:04:27;;;;;;;3.15;1.63;;;20.00;65.60;;;;;;4998732;28;20049;-67
2023/04/17 04:07:00;;;;;;;3.03;1.80;;;20.00;65.70;;;;;;5009311;28;20050;-66
2023/04/17 04:09:29;;;;;;;4.05;1.63;;;20.00;65.70;;;;;;5005426;28;20165;-66
2023/04/17 04:11:57;;;;;;;4.32;2.05;;;20.00;65.70;;;;;;5006515;28;20057;-67
2023/04/17 04:14:32;;;;;;;3.70;1.95;;;20.00;65.80;;;;;;5006765;28;20096;-66
2023/04/17 04:17:03;;;;;;;3.30;1.90;;;20.00;65.90;;;;;;5008064;28;20100;-66
2023/04/17 04:19:38;;;;;;;3.85;1.90;;;19.90;65.80;;;;;;5002346;28;20084;-66
2023/04/17 04:22:06;;;;;;;4.20;1.77;;;19.90;66.50;;;;;;5003217;28;20125;-66
2023/04/17 04:24:34;;;;;;;3.67;1.65;;;19.90;65.90;;;;;;5007047;28;20064;-67
2023/04/17 04:27:04;;;;;;;3.88;1.63;;;19.90;65.90;;;;;;5006777;28;20096;-67
2023/04/17 04:29:32;;;;;;;2.70;1.33;;;19.80;65.90;;;;;;5006746;28;20504;-66
2023/04/17 04:32:02;;;;;;;3.45;1.90;;;19.80;65.90;;;;;;5007838;28;20079;-67
2023/04/17 04:34:35;;;;;;;3.08;1.58;;;19.80;66.00;;;;;;5007837;28;20042;-66
2023/04/17 04:37:03;;;;;;;3.15;1.45;;;19.70;66.00;;;;;;4996737;28;20517;-67
2023/04/17 04:39:33;;;;;;;3.45;1.60;;;19.70;66.00;;;;;;5022192;28;20060;-66
2023/04/17 04:42:08;;;;;;;2.65;1.20;;;19.70;66.10;;;;;;5010901;28;20054;-66
2023/04/17 04:44:37;;;;;;;2.92;1.60;;;19.70;66.10;;;;;;5010196;28;20057;-66
2023/04/17 04:47:05;;;;;;;3.03;1.35;;;19.70;66.20;;;;;;5008921;28;20095;-67
2023/04/17 04:49:34;;;;;;;4.40;1.92;;;19.60;66.10;;;;;;5010083;28;20045;-66
2023/04/17 04:52:02;;;;;;;3.22;1.80;;;19.60;66.10;;;;;;5011226;28;20054;-67
2023/04/17 04:54:31;;;;;;;4.35;1.73;;;19.60;66.10;;;;;;5011949;28;20042;-67
2023/04/17 04:57:00;;;;;;;2.95;1.60;;;19.60;66.20;;;;;;5022387;28;20128;-66
2023/04/17 04:59:28;;;;;;;3.53;1.85;;;19.60;66.20;;;;;;5009588;28;20054;-67
2023/04/17 05:01:55;;;;;;;3.22;1.55;;;19.50;66.20;;;;;;5006999;28;20599;-68
2023/04/17 05:04:23;;;;;;;4.13;1.50;;;19.50;66.30;;;;;;5004590;28;20810;-66
2023/04/17 05:06:52;;;;;;;2.45;1.50;;;19.50;66.20;;;;;;5011583;28;20077;-66
2023/04/17 05:09:19;;;;;;;4.10;1.55;;;19.50;66.20;;;;;;5009623;28;20046;-67
2023/04/17 05:11:48;;;;;;;4.40;1.63;;;19.50;66.20;;;;;;5010515;28;20054;-67
2023/04/17 05:14:15;;;;;;;3.10;1.50;;;19.50;66.20;;;;;;5013175;28;20045;-67
2023/04/17 05:16:44;;;;;;;2.85;1.45;;;19.50;66.30;;;;;;5009794;28;20064;-67
2023/04/17 05:19:12;;;;;;;2.90;1.67;;;19.50;66.30;;;;;;5010727;28;20058;-67
2023/04/17 05:21:40;;;;;;;3.50;1.65;;;19.50;66.20;;;;;;5005722;28;20050;-67
2023/04/17 05:24:11;;;;;;;3.53;1.67;;;19.50;66.20;;;;;;5003842;28;20125;-67
2023/04/17 05:26:39;;;;;;;3.58;1.65;;;19.50;66.20;;;;;;5002818;28;20126;-67
2023/04/17 05:29:08;;;;;;;3.78;1.70;;;19.60;66.10;;;;;;5008031;28;20053;-66
2023/04/17 05:31:35;;;;;;;2.78;1.48;;;19.60;66.10;;;;;;4999893;28;20069;-66
2023/04/17 05:34:03;;;;;;;3.58;1.73;;;19.70;66.00;;;;;;5009464;28;20042;-67
2023/04/17 05:36:30;;;;;;;2.88;1.83;;;19.70;65.90;;;;;;5008718;28;20602;-67
2023/04/17 05:38:58;;;;;;;3.30;1.55;;;19.80;65.90;;;;;;5009827;28;20109;-66
2023/04/17 05:41:30;;;;;;;3.03;1.38;;;19.80;65.80;;;;;;5008477;28;20245;-67
2023/04/17 05:43:57;;;;;;;3.67;1.45;;;19.90;66.00;;;;;;5008427;28;20046;-66
2023/04/17 05:46:24;;;;;;;3.10;1.50;;;20.00;65.60;;;;;;5008102;28;20046;-66
2023/04/17 05:48:52;;;;;;;3.15;1.70;;;20.00;65.40;;;;;;5001002;28;20049;-66
2023/04/17 05:51:20;;;;;;;2.55;1.38;;;20.10;65.40;;;;;;5007067;28;20475;-67
2023/04/17 05:53:47;;;;;;;3.35;1.52;;;20.20;65.40;;;;;;5003852;28;20050;-67
2023/04/17 05:56:14;;;;;;;3.10;1.17;;;20.20;65.30;;;;;;5007472;28;20053;-66
2023/04/17 05:58:43;;;;;;;2.53;1.30;;;20.20;65.30;;;;;;5009631;28;20137;-67
2023/04/17 06:01:11;;;;;;;3.55;1.45;;;20.20;65.30;;;;;;5005497;28;20459;-67
2023/04/17 06:03:38;;;;;;;2.60;1.50;;;20.20;65.30;;;;;;5011579;28;20555;-67
2023/04/17 06:06:06;;;;;;;4.13;1.25;;;20.20;65.40;;;;;;5009582;28;20050;-67
2023/04/17 06:08:34;;;;;;;2.83;1.33;;;20.20;65.50;;;;;;5006867;28;20049;-67
2023/04/17 06:11:08;;;;;;;4.18;1.85;;;20.30;65.50;;;;;;5009247;28;20115;-66
2023/04/17 06:13:44;;;;;;;3.13;1.65;;;20.20;65.50;;;;;;5008923;28;20048;-67
2023/04/17 06:16:11;;;;;;;3.30;1.50;;;20.20;65.60;;;;;;5009756;28;20050;-68
2023/04/17 06:18:38;;;;;;;2.85;1.45;;;20.20;65.50;;;;;;5009185;28;20046;-68
2023/04/17 06:21:07;;;;;;;4.07;1.60;;;20.20;65.60;;;;;;5011842;28;20065;-68
2023/04/17 06:23:33;;;;;;;3.53;1.48;;;20.20;65.70;;;;;;5007289;28;20054;-68
2023/04/17 06:26:01;;;;;;;3.42;1.63;;;20.20;65.70;;;;;;5010755;28;20510;-68
2023/04/17 06:28:28;;;;;;;2.85;1.38;;;20.20;65.80;;;;;;5011849;28;20056;-68
2023/04/17 06:30:57;;;;;;;2.08;1.30;;;20.20;65.80;;;;;;5006609;28;20172;-68
2023/04/17 06:33:24;;;;;;;2.50;1.08;;;20.10;65.80;;;;;;5021600;28;20049;-67
2023/04/17 06:35:52;;;;;;;2.80;1.27;;;20.10;65.80;;;;;;5009286;28;20107;-68
2023/04/17 06:38:29;;;;;;;2.72;1.23;;;20.10;65.90;;;;;;5009008;28;20498;-67
2023/04/17 06:41:01;;;;;;;3.10;1.25;;;20.10;66.00;;;;;;5010943;28;20073;-69
2023/04/17 06:43:28;;;;;;;2.58;1.38;;;20.00;65.90;;;;;;5005789;28;20053;-68
2023/04/17 06:46:04;;;;;;;3.42;1.80;;;20.00;65.90;;;;;;5009149;28;20046;-68
2023/04/17 06:48:33;;;;;;;3.10;1.58;;;20.00;65.90;;;;;;5007901;28;20124;-68
2023/04/17 06:51:00;;;;;;;3.15;1.23;;;19.90;65.90;;;;;;5009611;28;20518;-68
2023/04/17 06:53:27;;;;;;;3.20;1.70;;;19.90;65.90;;;;;;5009156;28;20057;-68
2023/04/17 06:55:55;;;;;;;2.63;1.55;;;19.90;66.00;;;;;;5009584;28;20058;-69
2023/04/17 06:58:23;;;;;;;2.70;1.42;;;19.90;66.00;;;;;;5009316;28;20061;-69
2023/04/17 07:00:52;;;;;;;2.92;1.65;;;19.90;66.00;;;;;;5010146;28;20092;-68
2023/04/17 07:03:21;;;;;;;2.10;0.93;;;19.90;66.00;;;;;;5010209;28;20050;-68
2023/04/17 07:05:49;;;;;;;2.42;1.17;;;19.80;66.00;;;;;;5009618;28;20045;-68
2023/04/17 07:08:18;;;;;;;3.03;1.20;;;19.80;66.00;;;;;;5009981;28;20407;-67
2023/04/17 07:10:45;;;;;;;3.72;1.65;;;19.80;66.00;;;;;;5011207;28;20050;-68
2023/04/17 07:13:12;;;;;;;3.88;1.52;;;19.80;66.10;;;;;;5009121;28;20462;-68
2023/04/17 07:15:39;;;;;;;3.63;1.60;;;19.80;66.10;;;;;;5011007;28;20502;-67
2023/04/17 07:18:07;;;;;;;3.15;1.63;;;19.80;66.20;;;;;;5010230;28;20054;-69
2023/04/17 07:20:36;;;;;;;3.33;1.50;;;19.80;66.20;;;;;;5009425;28;20724;-68
2023/04/17 07:23:04;;;;;;;3.45;1.67;;;19.80;66.20;;;;;;4991954;28;20128;-68
2023/04/17 07:25:31;;;;;;;2.70;1.42;;;19.80;66.20;;;;;;5009766;28;20053;-67
2023/04/17 07:27:58;;;;;;;2.00;1.08;;;19.80;66.20;;;;;;5011080;28;20050;-67
2023/04/17 07:30:26;;;;;;;3.47;1.63;;;19.70;66.20;;;;;;5009671;28;20054;-67
2023/04/17 07:32:56;;;;;;;3.20;1.50;;;19.70;66.20;;;;;;5011347;28;20062;-68
2023/04/17 07:35:25;;;;;;;3.22;1.60;;;19.70;66.20;;;;;;5007777;28;20042;-68
2023/04/17 07:37:54;;;;;;;2.80;1.65;;;19.70;66.20;;;;;;5009971;28;20451;-67
2023/04/17 07:40:30;;;;;;;2.63;1.30;;;19.70;66.20;;;;;;5009298;28;20053;-69
2023/04/17 07:42:59;;;;;;;3.15;1.40;;;19.80;66.30;;;;;;5010507;28;20042;-68
2023/04/17 07:45:27;;;;;;;2.58;1.33;;;19.70;66.80;;;;;;5007897;28;20057;-67
2023/04/17 07:47:54;;;;;;;2.28;1.30;;;19.70;66.20;;;;;;5009506;28;20327;-68
2023/04/17 07:50:23;;;;;;;3.20;1.70;;;19.70;66.20;;;;;;5010504;28;20046;-68
2023/04/17 07:52:55;;;;;;;3.13;1.35;;;19.70;66.20;;;;;;5011091;28;20073;-68
2023/04/17 07:55:22;;;;;;;3.10;1.83;;;19.80;66.30;;;;;;5010531;28;20077;-68
2023/04/17 07:57:50;;;;;;;2.95;1.50;;;19.70;66.20;;;;;;5009205;28;20830;-69
2023/04/17 08:00:18;;;;;;;2.75;1.10;;;19.70;66.20;;;;;;5008249;28;20176;-67
2023/04/17 08:02:47;;;;;;;2.88;1.45;;;19.70;66.20;;;;;;5009378;28;20122;-68
2023/04/17 08:05:17;;;;;;;2.53;1.17;;;19.70;66.20;;;;;;5010746;28;20076;-68
2023/04/17 08:07:45;;;;;;;3.03;1.52;;;19.80;66.20;;;;;;5008883;28;20104;-68
2023/04/17 08:10:14;;;;;;;3.20;1.30;;;19.80;66.20;;;;;;5010727;28;20121;-68
2023/04/17 08:12:42;;;;;;;2.35;1.15;;;19.80;66.20;;;;;;5014205;28;20131;-67
2023/04/17 08:15:10;;;;;;;2.72;1.25;;;19.80;66.20;;;;;;5014466;28;20076;-68
2023/04/17 08:17:41;;;;;;;2.60;1.35;;;19.80;66.20;;;;;;5012655;28;20054;-68
2023/04/17 08:20:10;;;;;;;2.78;1.67;;;19.80;66.10;;;;;;5003102;28;20065;-68
2023/04/17 08:22:51;;;;;;;2.90;1.23;;;19.80;66.00;;;;;;5004547;28;20459;-68
2023/04/17 08:25:23;;;;;;;3.30;1.20;;;19.90;66.10;;;;;;4994190;28;20046;-68
2023/04/17 08:27:51;;;;;;;3.42;1.27;;;19.80;66.00;;;;;;5006187;28;20048;-68
2023/04/17 08:30:19;;;;;;;2.88;1.25;;;19.90;66.10;;;;;;5010890;28;20050;-67
2023/04/17 08:32:51;;;;;;;2.90;1.42;;;19.90;66.00;;;;;;5012417;28;20089;-68
2023/04/17 08:35:19;;;;;;;2.47;1.42;;;19.90;66.00;;;;;;5013074;28;20064;-68
2023/04/17 08:37:46;;;;;;;2.53;1.30;;;19.90;66.00;;;;;;5014194;28;20057;-68
2023/04/17 08:40:14;;;;;;;3.22;1.55;;;19.90;66.00;;;;;;5014122;28;20423;-68
2023/04/17 08:42:47;;;;;;;2.08;1.30;;;19.90;66.00;;;;;;5013579;28;20506;-68
2023/04/17 08:45:15;;;;;;;3.30;1.50;;;19.90;66.00;;;;;;5012862;28;20136;-68
2023/04/17 08:47:43;;;;;;;3.08;1.25;;;20.00;65.90;;;;;;5012720;28;20156;-68
2023/04/17 08:50:12;;;;;;;2.70;1.38;;;20.00;65.90;;;;;;5012420;28;20057;-68
2023/04/17 08:52:41;;;;;;;3.30;1.30;;;20.00;65.90;;;;;;5012403;28;20068;-68
2023/04/17 08:55:10;;;;;;;2.72;1.52;;;20.00;65.90;;;;;;5014007;28;20112;-68
2023/04/17 08:57:55;;;;;;;2.67;1.30;;;20.00;65.90;;;;;;5010639;28;20148;-68
2023/04/17 09:00:27;;;;;;;2.92;1.27;;;20.10;66.00;;;;;;5010691;28;20057;-68
2023/04/17 09:02:57;;;;;;;3.40;1.70;;;20.10;65.90;;;;;;5005695;28;20058;-68
2023/04/17 09:05:29;;;;;;;2.92;1.15;;;20.10;66.00;;;;;;5012444;28;20061;-68
2023/04/17 09:08:09;;;;;;;2.25;1.02;;;20.10;65.90;;;;;;5011073;28;20065;-68
2023/04/17 09:10:39;;;;;;;2.67;1.42;;;20.20;66.00;;;;;;5012518;28;20149;-68
2023/04/17 09:13:08;;;;;;;3.22;1.38;;;20.20;65.90;;;;;;5012282;28;20537;-68
2023/04/17 09:15:37;;;;;;;3.00;1.45;;;20.20;66.00;;;;;;5010783;28;20042;-68
2023/04/17 09:18:07;;;;;;;2.75;1.20;;;20.20;66.00;;;;;;5008173;28;20046;-68
2023/04/17 09:20:49;;;;;;;3.08;1.45;;;20.20;65.90;;;;;;4992397;28;20053;-67
2023/04/17 09:23:16;;;;;;;2.33;1.10;;;20.20;65.90;;;;;;4993759;28;20129;-68
2023/04/17 09:25:43;;;;;;;2.45;1.20;;;20.30;65.80;;;;;;4993862;28;20073;-68
2023/04/17 09:28:14;;;;;;;2.88;1.38;;;20.30;65.80;;;;;;4993719;28;20809;-68
2023/04/17 09:30:43;;;;;;;3.00;1.33;;;20.30;65.70;;;;;;4997964;28;20144;-68
2023/04/17 09:33:11;;;;;;;2.80;1.52;;;20.40;65.80;;;;;;4974176;28;20046;-67
2023/04/17 09:35:39;;;;;;;2.67;1.40;;;20.40;65.70;;;;;;4974030;28;20054;-68
2023/04/17 09:38:06;;;;;;;2.90;1.65;;;20.40;65.60;;;;;;4973956;28;20546;-68
2023/04/17 09:40:38;;;;;;;2.40;1.15;;;20.50;65.60;;;;;;4973491;28;20134;-68
2023/04/17 09:43:07;;;;;;;2.40;1.08;;;20.40;65.60;;;;;;4973469;28;20063;-69
2023/04/17 09:45:43;;;;;;;3.25;1.52;;;20.50;65.60;;;;;;4956985;28;20057;-67
2023/04/17 09:48:14;;;;;;;2.97;1.65;;;20.50;65.60;;;;;;4958283;28;20043;-67
2023/04/17 09:50:48;;;;;;;4.00;1.98;;;20.50;65.60;;;;;;4962334;28;20051;-70
2023/04/17 09:53:24;;;;;;;2.55;1.48;;;20.50;65.60;;;;;;4965006;28;20047;-80
2023/04/17 09:55:54;;;;;;;2.60;1.33;;;20.50;65.60;;;;;;4964854;28;20055;-70
2023/04/17 09:58:24;;;;;;;3.70;1.77;;;20.50;65.60;;;;;;4969625;28;20692;-66
2023/04/17 10:00:55;;;;;;;3.55;1.40;;;20.60;65.70;;;;;;4968186;28;20063;-79
2023/04/17 10:03:23;;;;;;;3.55;1.70;;;20.60;66.20;;;;;;4970071;28;20043;-79
2023/04/17 10:05:51;;;;;;;3.10;1.30;;;20.60;65.70;;;;;;4962896;28;20061;-73
2023/04/17 10:08:23;;;;;;;3.03;1.52;;;20.60;65.70;;;;;;4961553;28;20122;-73
2023/04/17 10:10:52;;;;;;;2.33;1.15;;;20.60;65.70;;;;;;4966361;28;20053;-70
2023/04/17 10:13:28;;;;;;;2.85;1.55;;;20.70;65.70;;;;;;4970250;28;20065;-68
2023/04/17 10:15:58;;;;;;;3.28;1.88;;;20.70;65.70;;;;;;4961453;28;20058;-75
2023/04/17 10:18:27;;;;;;;2.30;1.33;;;20.70;65.80;;;;;;4969813;28;20126;-73
2023/04/17 10:21:18;;;;;;;2.90;1.67;;;20.70;65.80;;;;;;4969479;28;20058;-75
2023/04/17 10:23:46;;;;;;;2.40;1.33;;;20.70;65.90;;;;;;4962274;28;20130;-75
2023/04/17 10:26:40;;;;;;;2.85;1.48;;;20.70;65.90;;;;;;4968953;28;20042;-74
2023/04/17 10:29:11;;;;;;;2.45;1.27;;;20.70;65.90;;;;;;4969825;28;20485;-72
2023/04/17 10:32:27;;;;;;;2.35;1.27;;;20.70;65.90;;;;;;4985810;28;20085;-67
2023/04/17 10:35:09;;;;;;;2.75;1.98;;;20.80;66.10;;;;;;5016506;28;20054;-68
2023/04/17 10:38:06;;;;;;;2.67;1.63;;;20.80;66.00;;;;;;4997260;28;20053;-67
2023/04/17 10:40:44;;;;;;;2.25;1.23;;;20.80;66.20;;;;;;5014173;28;20049;-67
2023/04/17 10:43:19;;;;;;;2.83;1.52;;;20.80;66.70;;;;;;5005098;28;20049;-69
2023/04/17 10:45:54;;;;;;;2.85;1.65;;;20.80;66.10;;;;;;5010248;28;20463;-76
2023/04/17 10:48:33;;;;;;;2.15;1.17;;;20.90;66.20;;;;;;5009274;28;20133;-73
2023/04/17 10:51:01;;;;;;;2.38;1.30;;;20.90;66.20;;;;;;4999809;28;20058;-83
2023/04/17 10:53:43;;;;;;;3.22;1.88;;;20.90;66.20;;;;;;5002498;28;20132;-65
2023/04/17 10:56:11;;;;;;;2.50;1.70;;;20.90;66.30;;;;;;5006419;28;20057;-70
2023/04/17 10:58:40;;;;;;;2.90;1.75;;;21.00;66.30;;;;;;5010174;28;20049;-70
2023/04/17 11:01:11;;;;;;;3.70;1.55;;;21.00;66.40;;;;;;5008862;28;20049;-70
2023/04/17 11:03:42;;;;;;;3.45;1.67;;;21.00;66.40;;;;;;5011244;28;20061;-71
2023/04/17 11:06:10;;;;;;;2.95;1.55;;;21.00;66.40;;;;;;4990412;28;20062;-70
2023/04/17 11:08:38;;;;;;;2.83;1.45;;;21.10;66.40;;;;;;4990497;28;20077;-69
2023/04/17 11:11:21;;;;;;;2.35;1.40;;;21.10;66.40;;;;;;4991853;28;20057;-71
2023/04/17 11:13:48;;;;;;;2.35;1.27;;;21.10;66.40;;;;;;5010566;28;20160;-70
2023/04/17 11:16:18;;;;;;;2.80;1.60;;;21.10;66.30;;;;;;5009791;28;20050;-71
2023/04/17 11:18:51;;;;;;;2.80;1.30;;;21.10;66.30;;;;;;5010233;28;20056;-71
2023/04/17 11:21:19;;;;;;;2.78;1.30;;;21.10;66.40;;;;;;5009376;28;20065;-70
2023/04/17 11:23:55;;;;;;;2.83;1.50;;;21.20;66.50;;;;;;5009556;28;20057;-70
2023/04/17 11:26:22;;;;;;;3.75;1.48;;;21.20;66.40;;;;;;5006381;28;20056;-70
2023/04/17 11:28:50;;;;;;;2.58;1.33;;;21.20;66.40;;;;;;5010500;28;20057;-70
2023/04/17 11:31:16;;;;;;;2.97;1.63;;;21.20;66.40;;;;;;5009747;28;20111;-70
2023/04/17 11:33:44;;;;;;;3.40;1.83;;;21.30;66.40;;;;;;5008027;28;20415;-70
2023/04/17 11:36:12;;;;;;;4.22;1.63;;;21.30;66.40;;;;;;4992153;28;20046;-70
2023/04/17 11:38:47;;;;;;;2.95;1.60;;;21.30;66.40;;;;;;5005374;28;20145;-70
2023/04/17 11:41:14;;;;;;;2.50;1.60;;;21.30;66.40;;;;;;5010384;28;20060;-70
2023/04/17 11:43:42;;;;;;;3.50;1.80;;;21.40;66.40;;;;;;5009073;28;20060;-71
2023/04/17 11:46:09;;;;;;;2.28;1.35;;;21.40;66.40;;;;;;5009013;28;20436;-70
2023/04/17 11:48:36;;;;;;;3.08;1.45;;;21.40;66.30;;;;;;5010832;28;20058;-70
2023/04/17 11:51:05;;;;;;;2.70;1.52;;;21.40;66.40;;;;;;5008934;28;20085;-70
2023/04/17 11:53:35;;;;;;;2.17;1.38;;;21.50;66.40;;;;;;4991114;28;20046;-70
2023/04/17 11:56:14;;;;;;;2.65;1.70;;;21.50;66.30;;;;;;4989288;28;20061;-70
2023/04/17 11:58:52;;;;;;;3.47;2.00;;;21.50;66.40;;;;;;5008811;28;20062;-70
2023/04/17 12:01:20;;;;;;;4.82;1.42;;;21.60;66.40;;;;;;5009020;28;20061;-70
2023/04/17 12:03:47;;;;;;;3.20;1.58;;;21.60;66.30;;;;;;5009324;28;20054;-70
2023/04/17 12:06:16;;;;;;;3.10;1.67;;;21.60;66.30;;;;;;5009125;28;20060;-69
2023/04/17 12:08:48;;;;;;;2.40;1.35;;;21.70;66.30;;;;;;5003599;28;20517;-70
2023/04/17 12:11:24;;;;;;;2.85;1.73;;;21.60;66.20;;;;;;4991097;28;20056;-70
2023/04/17 12:13:52;;;;;;;3.80;1.40;;;21.70;66.30;;;;;;5008704;28;20054;-69
2023/04/17 12:16:19;;;;;;;3.17;1.60;;;21.70;66.30;;;;;;5008886;28;20058;-70
2023/04/17 12:18:46;;;;;;;2.90;1.63;;;21.70;66.20;;;;;;5008647;28;20068;-70
2023/04/17 12:21:14;;;;;;;2.45;1.45;;;21.80;66.30;;;;;;5009993;28;20050;-69
2023/04/17 12:23:41;;;;;;;3.45;1.77;;;21.80;66.30;;;;;;5010458;28;20057;-70
2023/04/17 12:26:09;;;;;;;3.10;1.60;;;21.80;66.30;;;;;;5008795;28;20053;-70
2023/04/17 12:28:36;;;;;;;3.30;1.85;;;21.80;66.20;;;;;;5008719;28;20133;-70
2023/04/17 12:31:04;;;;;;;3.97;1.58;;;21.80;66.30;;;;;;5009058;28;20065;-70
2023/04/17 12:33:31;;;;;;;2.58;1.55;;;21.80;66.30;;;;;;5007787;28;20069;-69
2023/04/17 12:36:00;;;;;;;3.05;1.52;;;21.90;66.30;;;;;;5008660;28;20489;-70
2023/04/17 12:38:27;;;;;;;;;;;21.90;66.30;;;;;;5010663;28;20129;-70
2023/04/17 12:40:54;;;;;;;2.28;1.33;;;21.90;66.40;;;;;;5009715;28;19922;-71
2023/04/17 12:43:23;;;;;;;2.42;1.20;;;21.90;66.20;;;;;;4996712;28;20050;-71
2023/04/17 12:45:52;;;;;;;2.75;1.70;;;22.00;66.20;;;;;;5003124;28;20121;-68
2023/04/17 12:48:19;;;;;;;2.30;1.38;;;22.00;66.20;;;;;;5009662;28;20054;-70
2023/04/17 12:50:46;;;;;;;2.42;2.00;;;22.00;66.20;;;;;;5010088;28;20069;-70
2023/04/17 12:53:15;;;;;;;2.35;1.48;;;22.00;66.20;;;;;;5009760;28;20057;-70
2023/04/17 12:55:43;;;;;;;2.75;1.80;;;22.10;66.30;;;;;;4991719;28;20058;-70
2023/04/17 12:58:11;;;;;;;2.92;1.75;;;22.10;66.30;;;;;;4993088;28;20078;-70
2023/04/17 13:00:42;;;;;;;2.75;1.92;;;22.10;66.30;;;;;;4995125;28;20046;-71
2023/04/17 13:03:09;;;;;;;2.90;1.80;;;22.10;66.80;;;;;;4994075;28;20048;-70
2023/04/17 13:05:36;;;;;;;2.67;1.70;;;22.10;66.20;;;;;;4992736;28;20717;-71
2023/04/17 13:08:03;;;;;;;3.67;1.73;;;22.20;66.30;;;;;;4993925;28;20501;-70
2023/04/17 13:10:33;;;;;;;2.47;1.50;;;22.20;66.30;;;;;;4992185;28;20331;-70
2023/04/17 13:13:01;;;;;;;3.63;1.52;;;22.20;66.30;;;;;;4992297;28;20519;-70
2023/04/17 13:15:28;;;;;;;2.30;1.45;;;22.30;66.30;;;;;;5006197;28;20411;-70
2023/04/17 13:17:56;;;;;;;2.50;1.25;;;22.30;66.30;;;;;;4998349;28;20054;-70